Time;durP1;ratioP1;P1;durP2;ratioP2;P2;SDS_P1;SDS_P2;PMS_P1;PMS_P2;Temp;Humidity;BMP_temperature;BMP_pressure;BME280_temperature;BME280_humidity;BME280_pressure;Samples;Min_cycle;Max_cycle;Signal;HPM_P1;HPM_P2
2022/06/06 00:01:19;;;;;;;6.90;4.10;;;18.20;99.90;;;;;;5068034;28;20454;-69
2022/06/06 00:03:45;;;;;;;4.83;4.30;;;18.10;99.90;;;;;;5052678;28;20518;-69
2022/06/06 00:06:14;;;;;;;5.60;4.53;;;18.10;99.90;;;;;;5039400;28;20454;-70
2022/06/06 00:08:40;;;;;;;4.90;4.50;;;18.10;99.90;;;;;;5065267;28;20957;-69
2022/06/06 00:11:09;;;;;;;4.67;4.27;;;18.10;99.90;;;;;;5060795;28;20458;-68
2022/06/06 00:13:36;;;;;;;5.63;5.13;;;18.00;99.90;;;;;;5066643;28;20446;-68
2022/06/06 00:16:03;;;;;;;4.60;4.20;;;18.00;99.90;;;;;;5053160;28;20449;-69
2022/06/06 00:18:29;;;;;;;5.83;5.20;;;17.90;99.90;;;;;;5070474;28;20460;-69
2022/06/06 00:20:55;;;;;;;7.00;4.90;;;17.90;99.90;;;;;;5064691;28;20516;-69
2022/06/06 00:23:21;;;;;;;7.13;5.43;;;17.90;99.90;;;;;;5069831;28;20445;-68
2022/06/06 00:25:47;;;;;;;5.40;4.90;;;17.80;99.90;;;;;;5062690;28;20451;-69
2022/06/06 00:28:13;;;;;;;10.67;5.87;;;17.80;99.90;;;;;;5069323;28;20544;-69
2022/06/06 00:30:39;;;;;;;7.03;6.40;;;17.80;99.90;;;;;;5069782;28;20222;-67
2022/06/06 00:35:49;;;;;;;6.70;6.10;;;17.70;99.90;;;;;;5063770;28;20215;-68
2022/06/06 00:38:14;;;;;;;6.70;5.87;;;17.70;99.90;;;;;;5050375;28;20473;-68
2022/06/06 00:40:40;;;;;;;7.00;6.30;;;17.70;99.90;;;;;;5068798;28;20215;-68
2022/06/06 00:43:05;;;;;;;7.50;6.40;;;17.70;99.90;;;;;;5070285;28;20717;-68
2022/06/06 00:45:37;;;;;;;7.57;6.13;;;17.60;99.90;;;;;;5068853;28;20700;-67
2022/06/06 00:48:06;;;;;;;6.60;6.00;;;17.60;99.90;;;;;;5067485;28;20608;-68
2022/06/06 00:50:55;;;;;;;7.03;6.37;;;17.60;99.90;;;;;;5058301;28;20537;-68
2022/06/06 00:53:47;;;;;;;11.23;6.13;;;17.60;99.90;;;;;;5062400;28;21008;-68
2022/06/06 00:56:43;;;;;;;7.07;6.37;;;17.60;99.90;;;;;;5068199;28;20449;-69
2022/06/06 00:59:19;;;;;;;6.60;5.97;;;17.50;99.90;;;;;;5063327;28;20459;-69
2022/06/06 01:01:49;;;;;;;9.37;7.27;;;17.50;99.90;;;;;;5066970;28;20528;-69
2022/06/06 01:04:17;;;;;;;6.70;5.77;;;17.50;99.90;;;;;;5069538;28;20457;-69
2022/06/06 01:06:45;;;;;;;6.17;5.57;;;17.50;99.90;;;;;;5068911;28;20468;-68
2022/06/06 01:09:12;;;;;;;6.60;6.00;;;17.50;99.90;;;;;;5069132;28;20468;-69
2022/06/06 01:11:43;;;;;;;7.50;6.80;;;17.50;99.90;;;;;;5055789;28;20528;-68
2022/06/06 01:14:12;;;;;;;7.50;6.80;;;17.50;99.90;;;;;;5058673;28;20595;-69
2022/06/06 01:16:59;;;;;;;17.07;6.90;;;17.50;99.90;;;;;;5068550;28;20452;-68
2022/06/06 01:19:56;;;;;;;9.97;7.30;;;17.50;99.90;;;;;;5063334;28;20519;-68
2022/06/06 01:22:46;;;;;;;6.50;5.97;;;17.50;99.90;;;;;;5068100;28;20449;-69
2022/06/06 01:25:21;;;;;;;8.83;6.60;;;17.50;99.90;;;;;;5067667;28;20530;-69
2022/06/06 01:28:05;;;;;;;6.43;5.80;;;17.50;99.90;;;;;;5065114;28;20461;-68
2022/06/06 01:30:41;;;;;;;7.20;6.50;;;17.50;99.90;;;;;;5068056;28;20541;-68
2022/06/06 01:33:14;;;;;;;8.80;6.90;;;17.50;99.90;;;;;;5080606;28;20457;-68
2022/06/06 01:35:43;;;;;;;7.83;6.43;;;17.50;99.90;;;;;;5067325;28;20466;-69
2022/06/06 01:38:11;;;;;;;6.83;6.13;;;17.40;99.90;;;;;;5053747;28;20977;-69
2022/06/06 01:41:04;;;;;;;7.50;6.47;;;17.40;99.90;;;;;;5085070;28;20532;-69
2022/06/06 01:43:41;;;;;;;8.13;6.13;;;17.40;99.90;;;;;;5054187;28;20514;-69
2022/06/06 01:46:17;;;;;;;12.37;6.60;;;17.40;99.90;;;;;;5071091;28;20452;-68
2022/06/06 01:48:44;;;;;;;6.67;5.60;;;17.40;99.90;;;;;;5055868;28;20461;-69
2022/06/06 01:51:19;;;;;;;7.20;5.90;;;17.40;99.90;;;;;;5062900;28;20450;-69
2022/06/06 01:53:45;;;;;;;9.63;8.47;;;17.40;99.90;;;;;;5057418;28;20449;-68
2022/06/06 01:56:15;;;;;;;9.63;6.37;;;17.40;99.90;;;;;;5069415;28;20454;-69
2022/06/06 01:58:41;;;;;;;8.97;6.20;;;17.40;99.90;;;;;;5066241;28;20234;-69
2022/06/06 02:01:07;;;;;;;8.27;6.37;;;17.40;99.90;;;;;;5063659;28;20457;-68
2022/06/06 02:03:33;;;;;;;7.20;6.50;;;17.40;99.90;;;;;;5052186;28;20222;-68
2022/06/06 02:06:02;;;;;;;8.93;6.60;;;17.40;99.90;;;;;;5062989;28;20229;-67
2022/06/06 02:08:28;;;;;;;7.40;6.40;;;17.30;99.90;;;;;;5072622;28;20474;-68
2022/06/06 02:10:54;;;;;;;8.00;6.30;;;17.30;99.90;;;;;;5062322;28;20457;-66
2022/06/06 02:13:20;;;;;;;7.13;5.97;;;17.30;99.90;;;;;;5067160;28;20578;-69
2022/06/06 02:15:46;;;;;;;7.03;6.17;;;17.30;99.90;;;;;;5071106;28;20473;-69
2022/06/06 02:18:12;;;;;;;7.43;6.73;;;17.30;99.90;;;;;;5067337;28;20818;-68
2022/06/06 02:20:38;;;;;;;6.53;5.40;;;17.30;99.90;;;;;;5072386;28;20230;-67
2022/06/06 02:23:04;;;;;;;7.10;5.80;;;17.30;99.90;;;;;;5063119;28;20462;-69
2022/06/06 02:25:31;;;;;;;10.07;6.20;;;17.30;99.90;;;;;;5052032;28;20231;-68
2022/06/06 02:27:57;;;;;;;7.73;6.23;;;17.40;99.90;;;;;;5061554;28;21001;-68
2022/06/06 02:30:31;;;;;;;6.37;5.20;;;17.40;99.90;;;;;;5046317;28;21261;-69
2022/06/06 02:32:58;;;;;;;8.07;6.00;;;17.40;99.90;;;;;;5080466;28;20453;-70
2022/06/06 02:35:27;;;;;;;9.40;6.33;;;17.40;99.90;;;;;;5063851;28;20481;-68
2022/06/06 02:37:56;;;;;;;7.40;6.50;;;17.30;99.90;;;;;;5046918;28;20977;-69
2022/06/06 02:40:24;;;;;;;7.47;6.00;;;17.30;99.90;;;;;;5059535;28;20539;-69
2022/06/06 02:42:50;;;;;;;6.80;5.70;;;17.30;99.90;;;;;;5045887;28;20460;-68
2022/06/06 02:45:17;;;;;;;7.10;6.40;;;17.30;99.90;;;;;;5065409;28;20458;-69
2022/06/06 02:47:49;;;;;;;6.10;5.30;;;17.30;99.90;;;;;;5078854;28;20553;-68
2022/06/06 02:50:17;;;;;;;7.27;5.67;;;17.30;99.90;;;;;;5061129;28;20458;-68
2022/06/06 02:52:43;;;;;;;7.40;6.67;;;17.30;99.90;;;;;;5059215;28;20852;-66
2022/06/06 02:55:10;;;;;;;6.60;5.90;;;17.30;99.90;;;;;;5060451;28;20458;-69
2022/06/06 02:57:38;;;;;;;6.30;5.70;;;17.30;99.90;;;;;;5066632;28;20237;-68
2022/06/06 03:00:06;;;;;;;15.43;6.70;;;17.30;99.90;;;;;;5073014;28;20474;-68
2022/06/06 03:02:35;;;;;;;6.80;6.10;;;17.30;99.90;;;;;;5059897;28;20455;-68
2022/06/06 03:05:02;;;;;;;6.20;5.60;;;17.30;99.90;;;;;;5062765;28;20533;-68
2022/06/06 03:07:54;;;;;;;8.60;5.97;;;17.30;99.90;;;;;;5060929;28;20489;-69
2022/06/06 03:10:33;;;;;;;8.57;5.70;;;17.30;99.90;;;;;;5065943;28;20438;-69
2022/06/06 03:12:59;;;;;;;6.90;5.63;;;17.30;99.90;;;;;;5061808;28;20458;-70
2022/06/06 03:15:33;;;;;;;7.30;5.80;;;17.30;99.90;;;;;;5061737;28;20457;-67
2022/06/06 03:21:33;;;;;;;6.57;5.97;;;17.30;99.90;;;;;;5062660;28;20463;-68
2022/06/06 03:24:19;;;;;;;7.47;5.47;;;17.30;99.90;;;;;;5077976;28;20460;-68
2022/06/06 03:27:20;;;;;;;7.83;5.87;;;17.30;99.90;;;;;;5062488;28;20565;-69
2022/06/06 03:29:58;;;;;;;12.30;5.47;;;17.40;99.90;;;;;;5073377;28;20454;-68
2022/06/06 03:32:32;;;;;;;6.00;5.50;;;17.30;99.90;;;;;;5058074;28;20556;-66
2022/06/06 03:35:29;;;;;;;8.37;6.47;;;17.40;99.90;;;;;;5063269;28;20515;-67
2022/06/06 03:38:20;;;;;;;8.10;5.33;;;17.30;99.90;;;;;;5022933;28;1130195;-67
2022/06/06 03:41:07;;;;;;;6.07;5.47;;;17.30;99.90;;;;;;5061987;28;20310;-68
2022/06/06 03:43:57;;;;;;;7.40;5.67;;;17.30;99.90;;;;;;5059430;28;20442;-67
2022/06/06 03:47:06;;;;;;;6.17;5.57;;;17.30;99.90;;;;;;5082398;28;20454;-68
2022/06/06 03:49:50;;;;;;;6.37;5.77;;;17.30;99.90;;;;;;5052797;28;20454;-68
2022/06/06 03:52:27;;;;;;;7.23;6.63;;;17.30;99.90;;;;;;5062199;28;20446;-68
2022/06/06 03:55:17;;;;;;;8.90;5.53;;;17.30;99.90;;;;;;5076091;28;20457;-68
2022/06/06 03:57:46;;;;;;;9.20;5.07;;;17.30;99.90;;;;;;5060939;28;20446;-67
2022/06/06 04:00:14;;;;;;;5.67;5.17;;;17.30;99.90;;;;;;5069148;28;20462;-68
2022/06/06 04:02:44;;;;;;;7.70;5.70;;;17.30;99.90;;;;;;5069874;28;20473;-67
2022/06/06 04:05:16;;;;;;;6.60;6.00;;;17.30;99.90;;;;;;5092757;28;20540;-68
2022/06/06 04:07:42;;;;;;;6.50;5.53;;;17.30;99.90;;;;;;5066377;28;20461;-68
2022/06/06 04:10:10;;;;;;;6.40;5.47;;;17.40;99.90;;;;;;5069742;28;20983;-68
2022/06/06 04:12:45;;;;;;;5.83;5.33;;;17.30;99.90;;;;;;5070346;28;20280;-66
2022/06/06 04:15:42;;;;;;;7.77;6.57;;;17.40;99.90;;;;;;5074777;28;20547;-66
2022/06/06 04:19:02;;;;;;;5.80;5.17;;;17.40;99.90;;;;;;5033175;28;20466;-68
2022/06/06 04:21:38;;;;;;;6.27;5.60;;;17.40;99.90;;;;;;5048964;28;20485;-67
2022/06/06 04:24:17;;;;;;;7.53;6.43;;;17.40;99.90;;;;;;5066054;28;20480;-69
2022/06/06 04:26:50;;;;;;;6.13;5.53;;;17.40;99.90;;;;;;5069051;28;20473;-68
2022/06/06 04:29:36;;;;;;;7.70;6.93;;;17.40;99.90;;;;;;5068713;28;20485;-68
2022/06/06 04:32:19;;;;;;;8.37;6.03;;;17.40;99.90;;;;;;5066943;28;20462;-68
2022/06/06 04:35:08;;;;;;;6.80;6.07;;;17.40;99.90;;;;;;5038974;28;20523;-68
2022/06/06 04:37:39;;;;;;;6.40;5.17;;;17.40;99.90;;;;;;5074487;28;20984;-68
2022/06/06 04:40:35;;;;;;;7.27;6.13;;;17.40;99.90;;;;;;5065853;28;20461;-67
2022/06/06 04:43:20;;;;;;;6.63;5.90;;;17.40;99.90;;;;;;5058465;28;20452;-68
2022/06/06 04:46:17;;;;;;;6.53;5.93;;;17.40;99.90;;;;;;5069024;28;20460;-68
2022/06/06 04:48:44;;;;;;;5.93;5.23;;;17.50;99.90;;;;;;5069025;28;20462;-68
2022/06/06 04:51:15;;;;;;;6.77;5.17;;;17.50;99.90;;;;;;5052557;28;20819;-68
2022/06/06 04:53:44;;;;;;;6.50;5.20;;;17.50;99.90;;;;;;5057614;28;20445;-68
2022/06/06 04:56:13;;;;;;;6.50;5.20;;;17.50;99.90;;;;;;5072618;28;20457;-68
2022/06/06 04:58:40;;;;;;;6.73;6.10;;;17.50;99.90;;;;;;5071455;28;20449;-67
2022/06/06 05:01:07;;;;;;;7.27;6.40;;;17.50;99.90;;;;;;5069015;28;20491;-68
2022/06/06 05:03:33;;;;;;;7.70;6.77;;;17.50;99.90;;;;;;5051714;28;20537;-68
2022/06/06 05:06:15;;;;;;;9.20;6.40;;;17.60;99.90;;;;;;5068342;28;20536;-67
2022/06/06 05:09:08;;;;;;;6.93;6.17;;;17.60;99.90;;;;;;5072138;28;20241;-68
2022/06/06 05:12:11;;;;;;;7.50;6.43;;;17.60;99.90;;;;;;5052012;28;20460;-68
2022/06/06 05:14:59;;;;;;;8.30;6.37;;;17.60;99.90;;;;;;5067161;28;20457;-67
2022/06/06 05:17:33;;;;;;;7.50;6.80;;;17.60;99.90;;;;;;5073037;28;20880;-68
2022/06/06 05:20:38;;;;;;;6.77;6.07;;;17.70;99.90;;;;;;5052725;28;20474;-67
2022/06/06 05:23:26;;;;;;;11.03;7.00;;;17.70;99.90;;;;;;5065689;28;20445;-67
2022/06/06 05:25:52;;;;;;;9.90;7.77;;;17.70;99.90;;;;;;5068210;28;20450;-67
2022/06/06 05:28:23;;;;;;;8.57;7.27;;;17.80;99.90;;;;;;5067040;28;20472;-68
2022/06/06 05:30:48;;;;;;;10.70;8.47;;;17.80;99.90;;;;;;5062007;28;20229;-67
2022/06/06 05:33:29;;;;;;;9.90;7.73;;;17.80;99.90;;;;;;5069250;28;20458;-68
2022/06/06 05:36:00;;;;;;;11.37;7.80;;;17.90;99.90;;;;;;5059884;28;20222;-68
2022/06/06 05:38:36;;;;;;;10.50;8.20;;;17.90;99.90;;;;;;5074349;28;20495;-68
2022/06/06 05:41:27;;;;;;;10.13;8.17;;;17.90;99.90;;;;;;5052356;28;20968;-69
2022/06/06 05:44:08;;;;;;;8.70;7.20;;;17.90;99.90;;;;;;5068388;28;20461;-67
2022/06/06 05:46:47;;;;;;;9.57;7.30;;;18.00;99.90;;;;;;5072198;28;20498;-66
2022/06/06 05:49:18;;;;;;;9.50;7.23;;;18.00;99.90;;;;;;5065302;28;20473;-68
2022/06/06 05:51:53;;;;;;;7.43;6.73;;;18.00;99.90;;;;;;5068864;28;20520;-66
2022/06/06 05:54:32;;;;;;;7.83;7.10;;;18.00;99.90;;;;;;5068171;28;20453;-67
2022/06/06 05:57:42;;;;;;;8.00;6.77;;;18.00;99.90;;;;;;5061000;28;20448;-68
2022/06/06 06:00:29;;;;;;;8.47;7.53;;;18.00;99.90;;;;;;5072160;28;20871;-67
2022/06/06 06:03:00;;;;;;;8.73;7.83;;;18.00;99.90;;;;;;5074391;28;20451;-68
2022/06/06 06:05:55;;;;;;;16.77;8.00;;;18.10;99.90;;;;;;5078850;28;20457;-68
2022/06/06 06:08:56;;;;;;;9.33;7.60;;;18.10;99.90;;;;;;5068934;28;20469;-68
2022/06/06 06:11:50;;;;;;;8.30;7.50;;;18.10;99.90;;;;;;5051947;28;20552;-68
2022/06/06 06:14:19;;;;;;;7.83;6.97;;;18.10;99.90;;;;;;5067665;28;20468;-68
2022/06/06 06:16:54;;;;;;;8.33;7.43;;;18.20;99.90;;;;;;5071300;28;20458;-69
2022/06/06 06:19:25;;;;;;;9.73;8.37;;;18.20;99.90;;;;;;5076306;28;20455;-69
2022/06/06 06:21:55;;;;;;;9.67;8.50;;;18.20;99.90;;;;;;5069552;28;20881;-69
2022/06/06 06:24:31;;;;;;;9.20;8.20;;;18.20;99.90;;;;;;5072334;28;20449;-68
2022/06/06 06:26:58;;;;;;;9.30;7.53;;;18.30;99.90;;;;;;5066449;28;21009;-68
2022/06/06 06:29:24;;;;;;;10.10;7.53;;;18.30;99.90;;;;;;5067217;28;20449;-69
2022/06/06 06:31:56;;;;;;;9.87;7.27;;;18.30;99.90;;;;;;5069019;28;20462;-68
2022/06/06 06:34:41;;;;;;;11.17;8.87;;;18.30;99.90;;;;;;5065721;28;20458;-69
2022/06/06 06:37:16;;;;;;;10.40;7.37;;;18.30;99.90;;;;;;5070396;28;20461;-68
2022/06/06 06:39:49;;;;;;;9.47;8.03;;;18.30;99.90;;;;;;5051649;28;21027;-69
2022/06/06 06:42:46;;;;;;;9.63;8.50;;;18.40;99.90;;;;;;5057779;28;20464;-68
2022/06/06 06:45:20;;;;;;;9.30;8.37;;;18.40;99.90;;;;;;5065261;28;20489;-68
2022/06/06 06:48:11;;;;;;;14.33;9.90;;;18.40;99.90;;;;;;5068081;28;20557;-68
2022/06/06 06:51:04;;;;;;;11.00;9.20;;;18.50;99.90;;;;;;5067296;28;20453;-68
2022/06/06 06:53:30;;;;;;;10.20;7.90;;;18.50;99.90;;;;;;5068632;28;20864;-68
2022/06/06 06:56:11;;;;;;;9.23;8.20;;;18.50;99.90;;;;;;5081575;28;20460;-67
2022/06/06 06:59:07;;;;;;;10.80;8.67;;;18.60;99.90;;;;;;5069532;28;20242;-68
2022/06/06 07:11:09;;;;;;;8.73;7.80;;;18.70;99.90;;;;;;5074028;28;20500;-71
2022/06/06 07:13:50;;;;;;;9.50;8.50;;;18.70;99.90;;;;;;5064516;28;20946;-67
2022/06/06 07:16:22;;;;;;;8.50;7.70;;;18.70;99.90;;;;;;5067199;28;20485;-68
2022/06/06 07:19:12;;;;;;;11.70;7.67;;;18.70;99.90;;;;;;5058911;28;20973;-70
2022/06/06 07:21:39;;;;;;;8.27;7.47;;;18.70;99.90;;;;;;5066217;28;20852;-69
2022/06/06 07:24:07;;;;;;;16.37;8.00;;;18.70;99.90;;;;;;5069195;28;20457;-68
2022/06/06 07:26:38;;;;;;;7.57;6.47;;;18.70;99.90;;;;;;5059771;28;20527;-70
2022/06/06 07:29:06;;;;;;;7.57;6.73;;;18.70;99.90;;;;;;5070008;28;20454;-67
2022/06/06 07:32:10;;;;;;;7.53;6.70;;;18.80;99.90;;;;;;5069801;28;20466;-68
2022/06/06 07:34:57;;;;;;;7.77;6.60;;;18.80;99.90;;;;;;5058817;28;20445;-68
2022/06/06 07:37:41;;;;;;;6.10;5.50;;;18.80;99.90;;;;;;5069399;28;20457;-68
2022/06/06 07:40:12;;;;;;;12.40;5.77;;;18.70;99.90;;;;;;5070484;28;20545;-68
2022/06/06 07:42:56;;;;;;;9.30;6.17;;;18.70;99.90;;;;;;5069640;28;20445;-68
2022/06/06 07:45:50;;;;;;;6.90;5.80;;;18.70;99.90;;;;;;5086128;28;20540;-69
2022/06/06 07:48:24;;;;;;;6.47;5.87;;;18.70;99.90;;;;;;5060247;28;20477;-69
2022/06/06 07:51:03;;;;;;;7.57;5.20;;;18.70;99.90;;;;;;5077032;28;20480;-68
2022/06/06 07:53:40;;;;;;;6.37;5.77;;;18.70;99.90;;;;;;5069338;28;20480;-69
2022/06/06 07:56:29;;;;;;;5.30;4.53;;;18.70;99.90;;;;;;5067174;28;20488;-68
2022/06/06 07:59:01;;;;;;;5.00;4.53;;;18.70;99.90;;;;;;5071491;28;21045;-67
2022/06/06 08:01:45;;;;;;;3.63;3.33;;;18.70;99.90;;;;;;5058119;28;20460;-68
2022/06/06 08:04:26;;;;;;;4.17;3.47;;;18.60;99.90;;;;;;5071758;28;20464;-68
2022/06/06 08:07:04;;;;;;;3.83;3.37;;;18.60;99.90;;;;;;5074245;28;20484;-68
2022/06/06 08:09:30;;;;;;;4.30;3.90;;;18.60;99.90;;;;;;5066323;28;20458;-67
2022/06/06 08:12:05;;;;;;;4.13;3.17;;;18.60;99.90;;;;;;5064095;28;20973;-68
2022/06/06 08:15:07;;;;;;;3.43;3.13;;;18.60;99.90;;;;;;5063611;28;20219;-68
2022/06/06 08:17:52;;;;;;;4.10;3.73;;;18.60;99.90;;;;;;5060653;28;20475;-67
2022/06/06 08:20:24;;;;;;;3.93;3.37;;;18.60;99.90;;;;;;5089893;28;20539;-68
2022/06/06 08:22:52;;;;;;;4.27;3.63;;;18.60;99.90;;;;;;5063480;28;20495;-68
2022/06/06 08:25:19;;;;;;;3.30;3.00;;;18.60;99.90;;;;;;5069799;28;20465;-70
2022/06/06 08:27:50;;;;;;;3.53;3.23;;;18.60;99.90;;;;;;5070461;28;20461;-68
2022/06/06 08:30:19;;;;;;;5.20;2.97;;;18.60;99.90;;;;;;5072483;28;20548;-68
2022/06/06 08:32:45;;;;;;;4.37;3.90;;;18.60;99.90;;;;;;5073925;28;20456;-68
2022/06/06 08:35:11;;;;;;;7.07;3.67;;;18.60;99.90;;;;;;5077048;28;20457;-71
2022/06/06 08:37:51;;;;;;;3.57;3.27;;;18.60;99.90;;;;;;5069110;28;20283;-69
2022/06/06 08:40:35;;;;;;;5.40;3.60;;;18.60;99.90;;;;;;5071859;28;20532;-67
2022/06/06 08:43:42;;;;;;;4.10;3.70;;;18.60;99.90;;;;;;5060078;28;20445;-68
2022/06/06 08:46:47;;;;;;;3.53;3.23;;;18.60;99.90;;;;;;5077335;28;20481;-68
2022/06/06 08:52:59;;;;;;;3.80;2.87;;;18.70;99.90;;;;;;5070415;28;20448;-66
2022/06/06 08:55:40;;;;;;;4.30;3.90;;;18.70;99.90;;;;;;5067548;28;20503;-67
2022/06/06 08:58:23;;;;;;;4.03;3.63;;;18.70;99.90;;;;;;5060513;28;20465;-66
2022/06/06 09:01:20;;;;;;;4.30;3.57;;;18.80;99.90;;;;;;5059976;28;20539;-65
2022/06/06 09:04:17;;;;;;;5.30;3.87;;;18.80;99.90;;;;;;5074040;28;20459;-66
2022/06/06 09:07:06;;;;;;;3.80;3.50;;;18.80;99.90;;;;;;5077024;28;20466;-67
2022/06/06 09:09:38;;;;;;;4.50;3.67;;;18.80;99.90;;;;;;5061086;28;20527;-66
2022/06/06 09:12:22;;;;;;;3.73;3.30;;;18.80;99.90;;;;;;5061141;28;20441;-66
2022/06/06 09:15:26;;;;;;;4.00;3.60;;;18.90;99.90;;;;;;5067749;28;20472;-68
2022/06/06 09:18:13;;;;;;;4.10;3.47;;;19.00;99.90;;;;;;5032711;28;20544;-66
2022/06/06 09:21:18;;;;;;;3.80;3.50;;;19.10;99.90;;;;;;5062082;28;20441;-66
2022/06/06 09:24:33;;;;;;;3.60;3.30;;;19.20;99.90;;;;;;5045176;28;20446;-68
2022/06/06 09:27:27;;;;;;;3.97;3.57;;;19.30;99.90;;;;;;5067220;28;20465;-67
2022/06/06 09:30:10;;;;;;;4.53;4.07;;;19.50;99.90;;;;;;5063956;28;20468;-68
2022/06/06 09:32:51;;;;;;;4.50;4.10;;;19.60;99.90;;;;;;5053119;28;20461;-71
2022/06/06 09:35:38;;;;;;;3.10;2.90;;;19.70;99.90;;;;;;5082353;28;20467;-68
2022/06/06 09:38:45;;;;;;;3.40;3.10;;;19.90;99.90;;;;;;5068544;28;20965;-66
2022/06/06 09:41:19;;;;;;;4.53;3.50;;;20.00;99.90;;;;;;5060079;28;20446;-69
2022/06/06 09:44:11;;;;;;;3.63;3.33;;;20.10;99.90;;;;;;5064883;28;20970;-68
2022/06/06 09:46:52;;;;;;;3.40;3.10;;;20.30;99.90;;;;;;5060216;28;20944;-68
2022/06/06 09:49:41;;;;;;;3.20;3.00;;;20.40;99.90;;;;;;5072985;28;20451;-71
2022/06/06 09:52:43;;;;;;;3.67;3.37;;;20.40;99.90;;;;;;5068675;28;20792;-68
2022/06/06 10:01:58;;;;;;;3.30;3.10;;;20.70;99.90;;;;;;5067458;28;20972;-68
2022/06/06 10:04:29;;;;;;;3.87;3.57;;;20.80;99.90;;;;;;5062839;28;20812;-69
2022/06/06 10:07:32;;;;;;;3.70;3.40;;;20.90;99.90;;;;;;5093433;28;20465;-68
2022/06/06 10:10:19;;;;;;;4.47;3.63;;;21.00;99.90;;;;;;5068856;28;20456;-69
2022/06/06 10:12:51;;;;;;;4.13;3.43;;;21.10;99.90;;;;;;5068357;28;20449;-68
2022/06/06 10:15:38;;;;;;;3.77;3.47;;;21.20;99.90;;;;;;5085698;28;20441;-67
2022/06/06 10:18:39;;;;;;;3.33;2.97;;;21.30;99.90;;;;;;5055093;28;20449;-68
2022/06/06 10:21:30;;;;;;;3.20;2.90;;;21.40;99.90;;;;;;5068890;28;20453;-69
2022/06/06 10:24:09;;;;;;;2.80;2.60;;;21.50;99.90;;;;;;5068011;28;20441;-67
2022/06/06 10:27:10;;;;;;;2.47;2.27;;;21.60;99.90;;;;;;5070863;28;20445;-68
2022/06/06 10:32:35;;;;;;;3.43;2.90;;;21.80;99.90;;;;;;5075769;28;20443;-69
2022/06/06 10:35:03;;;;;;;2.77;2.50;;;21.90;99.90;;;;;;5075061;28;20461;-69
2022/06/06 10:37:38;;;;;;;2.70;2.50;;;22.00;99.90;;;;;;5069516;28;20249;-72
2022/06/06 10:40:28;;;;;;;2.83;2.53;;;22.10;99.90;;;;;;5071013;28;20472;-71
2022/06/06 10:43:06;;;;;;;2.80;2.60;;;22.20;99.90;;;;;;5068872;28;20445;-70
2022/06/06 10:45:31;;;;;;;3.27;2.43;;;22.40;99.90;;;;;;5069731;28;20468;-70
2022/06/06 10:48:03;;;;;;;3.23;2.93;;;22.40;99.90;;;;;;5078936;28;20473;-71
2022/06/06 10:53:46;;;;;;;2.40;2.30;;;22.30;99.90;;;;;;5067781;28;20448;-71
2022/06/06 10:56:40;;;;;;;4.43;2.43;;;22.30;99.90;;;;;;5071073;28;20457;-71
2022/06/06 10:59:37;;;;;;;3.40;2.40;;;22.20;99.90;;;;;;5071923;28;20456;-68
2022/06/06 11:02:21;;;;;;;3.37;2.40;;;22.10;99.90;;;;;;5068586;28;20534;-72
2022/06/06 11:04:59;;;;;;;2.10;2.00;;;22.10;99.90;;;;;;5051461;28;20462;-70
2022/06/06 11:07:55;;;;;;;2.43;2.33;;;22.10;99.90;;;;;;5065425;28;20481;-70
2022/06/06 11:10:58;;;;;;;2.40;2.30;;;22.10;99.90;;;;;;5059969;28;20460;-70
2022/06/06 11:13:55;;;;;;;4.27;3.87;;;22.10;99.90;;;;;;5060733;28;20457;-71
2022/06/06 11:16:40;;;;;;;2.50;2.30;;;22.10;99.90;;;;;;5062686;28;20445;-70
2022/06/06 11:19:28;;;;;;;2.00;1.90;;;22.20;99.90;;;;;;5059665;28;20469;-71
2022/06/06 11:22:00;;;;;;;2.53;2.20;;;22.30;99.90;;;;;;5061349;28;20460;-70
2022/06/06 11:24:32;;;;;;;2.60;2.40;;;22.40;99.90;;;;;;5060886;28;20488;-70
2022/06/06 11:27:28;;;;;;;2.33;2.13;;;22.50;99.90;;;;;;5063247;28;20480;-71
2022/06/06 11:30:17;;;;;;;2.07;1.97;;;22.70;99.90;;;;;;5060228;28;20445;-70
2022/06/06 11:33:17;;;;;;;1.90;1.60;;;22.80;99.90;;;;;;5059140;28;20452;-71
2022/06/06 11:36:13;;;;;;;2.17;2.07;;;22.80;99.90;;;;;;5067444;28;20458;-70
2022/06/06 11:39:01;;;;;;;1.77;1.67;;;22.90;99.90;;;;;;5026121;28;20781;-71
2022/06/06 11:42:04;;;;;;;2.30;2.10;;;23.00;99.90;;;;;;5077125;28;20981;-70
2022/06/06 11:44:54;;;;;;;2.40;2.00;;;23.00;99.90;;;;;;5070168;28;20471;-71
2022/06/06 11:47:41;;;;;;;1.73;1.50;;;23.20;99.90;;;;;;5071223;28;20500;-70
2022/06/06 11:50:10;;;;;;;2.07;1.93;;;23.30;99.90;;;;;;5065362;28;20445;-69
2022/06/06 11:52:59;;;;;;;2.43;2.23;;;23.40;99.90;;;;;;5078320;28;20441;-70
2022/06/06 11:55:49;;;;;;;2.57;2.37;;;23.50;99.90;;;;;;5066521;28;20506;-70
2022/06/06 11:58:17;;;;;;;2.50;2.30;;;23.60;99.90;;;;;;5051603;28;20446;-71
2022/06/06 12:00:55;;;;;;;2.10;2.00;;;23.70;99.90;;;;;;5049670;28;20457;-70
2022/06/06 12:03:24;;;;;;;6.20;2.17;;;23.80;99.90;;;;;;5068359;28;20891;-70
2022/06/06 12:06:13;;;;;;;2.00;1.90;;;23.90;99.90;;;;;;5067052;28;20963;-70
2022/06/06 12:08:39;;;;;;;2.33;2.23;;;23.80;99.90;;;;;;5059275;28;20457;-72
2022/06/06 12:11:07;;;;;;;2.20;1.90;;;23.80;99.90;;;;;;5065764;28;20463;-71
2022/06/06 12:14:14;;;;;;;2.40;2.30;;;23.80;99.90;;;;;;5065380;28;20214;-69
2022/06/06 12:16:45;;;;;;;2.07;1.97;;;23.90;99.90;;;;;;5039189;28;20464;-70
2022/06/06 12:19:34;;;;;;;1.67;1.57;;;24.00;99.90;;;;;;5070780;28;20461;-70
2022/06/06 12:22:27;;;;;;;1.50;1.40;;;24.10;99.90;;;;;;5052872;28;20465;-71
2022/06/06 12:25:05;;;;;;;1.77;1.67;;;24.20;99.90;;;;;;5069329;28;20477;-71
2022/06/06 12:27:52;;;;;;;1.70;1.60;;;24.20;99.90;;;;;;5069228;28;20475;-69
2022/06/06 12:30:30;;;;;;;2.10;2.00;;;24.30;99.90;;;;;;5073113;28;20452;-73
2022/06/06 12:33:02;;;;;;;3.10;1.80;;;24.40;99.70;;;;;;5069749;28;20483;-70
2022/06/06 12:35:38;;;;;;;1.87;1.77;;;24.40;99.90;;;;;;5078945;28;20553;-69
2022/06/06 12:38:19;;;;;;;1.80;1.70;;;24.60;99.90;;;;;;5075815;28;20543;-71
2022/06/06 12:41:11;;;;;;;4.63;2.17;;;24.70;99.80;;;;;;5066055;28;20834;-68
2022/06/06 12:43:37;;;;;;;2.23;2.00;;;24.80;98.60;;;;;;5057968;28;20570;-69
2022/06/06 12:46:42;;;;;;;2.70;1.87;;;24.80;98.80;;;;;;5065279;28;20541;-69
2022/06/06 12:49:34;;;;;;;2.00;1.80;;;24.90;98.10;;;;;;5071301;28;20233;-70
2022/06/06 12:52:32;;;;;;;2.17;1.97;;;24.90;97.60;;;;;;5057871;28;20817;-69
2022/06/06 12:57:50;;;;;;;2.30;2.20;;;25.10;98.20;;;;;;5062933;28;20549;-69
2022/06/06 13:01:37;;;;;;;1.90;1.80;;;25.20;98.30;;;;;;5068276;28;20509;-70
2022/06/06 13:03:24;;;;;;;2.40;1.67;;;25.20;97.40;;;;;;5075856;28;20447;-71
2022/06/06 13:06:05;;;;;;;6.93;2.23;;;25.20;97.10;;;;;;5061221;28;20445;-69
2022/06/06 13:09:12;;;;;;;2.17;2.07;;;25.10;97.10;;;;;;5065757;28;20481;-71
2022/06/06 13:11:55;;;;;;;2.13;1.97;;;25.10;96.60;;;;;;5052140;28;20563;-69
2022/06/06 13:14:29;;;;;;;2.20;1.93;;;25.10;97.10;;;;;;5062030;28;20471;-71
2022/06/06 13:17:17;;;;;;;5.10;2.03;;;25.20;96.90;;;;;;5053760;28;20492;-70
2022/06/06 13:20:04;;;;;;;2.17;2.03;;;25.30;97.30;;;;;;5070733;28;20519;-70
2022/06/06 13:22:54;;;;;;;2.27;2.17;;;25.40;97.30;;;;;;5058657;28;20537;-70
2022/06/06 13:25:53;;;;;;;1.87;1.77;;;25.50;96.20;;;;;;5060792;28;20522;-68
2022/06/06 13:28:26;;;;;;;2.80;1.50;;;25.50;95.80;;;;;;5060732;28;20494;-69
2022/06/06 13:30:57;;;;;;;1.80;1.70;;;25.50;94.30;;;;;;5059038;28;20460;-70
2022/06/06 13:33:23;;;;;;;1.77;1.67;;;25.50;94.80;;;;;;5062869;28;20449;-69
2022/06/06 13:36:11;;;;;;;2.17;1.57;;;25.50;94.80;;;;;;5060867;28;20501;-68
2022/06/06 13:39:01;;;;;;;1.60;1.50;;;25.50;95.10;;;;;;5060406;28;20314;-69
2022/06/06 13:41:54;;;;;;;1.90;1.80;;;25.60;93.90;;;;;;5081229;28;20481;-69
2022/06/06 13:44:29;;;;;;;2.07;1.97;;;25.50;94.00;;;;;;5068395;28;20461;-69
2022/06/06 13:47:36;;;;;;;2.10;2.00;;;25.60;94.20;;;;;;5071407;28;20463;-70
2022/06/06 13:50:29;;;;;;;2.00;1.90;;;25.60;93.50;;;;;;5053725;28;20468;-70
2022/06/06 13:52:58;;;;;;;4.10;1.60;;;25.60;93.50;;;;;;5051021;28;20970;-70
2022/06/06 13:55:40;;;;;;;1.90;1.80;;;25.70;94.10;;;;;;5069457;28;20456;-70
2022/06/06 13:58:15;;;;;;;1.83;1.70;;;25.80;93.80;;;;;;5068766;28;20476;-71
2022/06/06 14:00:58;;;;;;;1.50;1.40;;;25.80;91.80;;;;;;5060943;28;20449;-71
2022/06/06 14:03:56;;;;;;;2.50;1.60;;;25.80;92.90;;;;;;5066318;28;20463;-70
2022/06/06 14:06:31;;;;;;;1.83;1.67;;;25.80;92.10;;;;;;5056955;28;20468;-70
2022/06/06 14:08:58;;;;;;;2.40;2.13;;;25.90;91.90;;;;;;5066588;28;20469;-69
2022/06/06 14:11:45;;;;;;;2.20;1.93;;;25.80;92.80;;;;;;5071142;28;20446;-68
2022/06/06 14:14:16;;;;;;;2.00;1.90;;;25.80;93.80;;;;;;5066860;28;20453;-71
2022/06/06 14:16:49;;;;;;;3.10;1.83;;;25.90;94.60;;;;;;5069000;28;20463;-70
2022/06/06 14:19:26;;;;;;;2.40;2.00;;;25.80;93.90;;;;;;5072831;28;20463;-71
2022/06/06 14:21:57;;;;;;;2.20;2.07;;;25.30;94.00;;;;;;5068369;28;20456;-67
2022/06/06 14:24:28;;;;;;;2.77;1.70;;;25.30;94.30;;;;;;5051849;28;20880;-69